sensor_id;sensor_type;location;lat;lon;timestamp;P1;durP1;ratioP1;P2;durP2;ratioP2
26391;SDS011;14572;43.120;1.178;2022-11-12T08:11:01;5.65;;;2.50;;
26391;SDS011;14572;43.120;1.178;2022-11-12T08:13:28;4.55;;;2.63;;
26391;SDS011;14572;43.120;1.178;2022-11-12T08:15:56;7.00;;;2.92;;
26391;SDS011;14572;43.120;1.178;2022-11-12T08:18:23;10.23;;;3.42;;
26391;SDS011;14572;43.120;1.178;2022-11-12T08:20:51;3.75;;;2.92;;
26391;SDS011;14572;43.120;1.178;2022-11-12T08:23:18;8.55;;;3.13;;
26391;SDS011;14572;43.120;1.178;2022-11-12T08:25:46;6.30;;;3.30;;
26391;SDS011;14572;43.120;1.178;2022-11-12T08:28:14;9.70;;;2.75;;
26391;SDS011;14572;43.120;1.178;2022-11-12T08:30:41;5.57;;;2.90;;
26391;SDS011;14572;43.120;1.178;2022-11-12T08:33:08;4.03;;;2.40;;
26391;SDS011;14572;43.120;1.178;2022-11-12T08:35:36;7.93;;;2.90;;
26391;SDS011;14572;43.120;1.178;2022-11-12T08:38:05;6.88;;;2.55;;
26391;SDS011;14572;43.120;1.178;2022-11-12T08:40:34;5.60;;;2.70;;
26391;SDS011;14572;43.120;1.178;2022-11-12T08:43:03;5.80;;;3.00;;
26391;SDS011;14572;43.120;1.178;2022-11-12T08:45:33;5.50;;;2.95;;
26391;SDS011;14572;43.120;1.178;2022-11-12T08:48:02;8.63;;;3.47;;
26391;SDS011;14572;43.120;1.178;2022-11-12T08:50:32;6.20;;;3.40;;
26391;SDS011;14572;43.120;1.178;2022-11-12T08:52:59;6.47;;;3.47;;
26391;SDS011;14572;43.120;1.178;2022-11-12T08:55:27;8.40;;;3.45;;
26391;SDS011;14572;43.120;1.178;2022-11-12T08:57:55;6.05;;;2.38;;
26391;SDS011;14572;43.120;1.178;2022-11-12T09:00:26;5.32;;;2.65;;
26391;SDS011;14572;43.120;1.178;2022-11-12T09:02:55;7.13;;;2.35;;
26391;SDS011;14572;43.120;1.178;2022-11-12T09:05:22;3.78;;;2.17;;
26391;SDS011;14572;43.120;1.178;2022-11-12T09:07:55;7.85;;;2.45;;
26391;SDS011;14572;43.120;1.178;2022-11-12T09:10:23;6.25;;;1.90;;
26391;SDS011;14572;43.120;1.178;2022-11-12T09:12:50;8.30;;;1.88;;
26391;SDS011;14572;43.120;1.178;2022-11-12T09:15:17;5.47;;;1.55;;
26391;SDS011;14572;43.120;1.178;2022-11-12T09:17:44;6.85;;;2.00;;
26391;SDS011;14572;43.120;1.178;2022-11-12T09:20:13;7.57;;;1.98;;
26391;SDS011;14572;43.120;1.178;2022-11-12T09:22:40;8.48;;;1.80;;
26391;SDS011;14572;43.120;1.178;2022-11-12T09:25:08;9.80;;;2.83;;
26391;SDS011;14572;43.120;1.178;2022-11-12T09:27:35;5.50;;;1.75;;
26391;SDS011;14572;43.120;1.178;2022-11-12T09:30:03;3.85;;;1.63;;
26391;SDS011;14572;43.120;1.178;2022-11-12T09:32:30;4.63;;;1.90;;
26391;SDS011;14572;43.120;1.178;2022-11-12T09:34:58;7.05;;;1.52;;
26391;SDS011;14572;43.120;1.178;2022-11-12T09:37:27;8.00;;;1.70;;
26391;SDS011;14572;43.120;1.178;2022-11-12T09:39:55;4.20;;;1.67;;
26391;SDS011;14572;43.120;1.178;2022-11-12T09:42:22;4.63;;;1.30;;
26391;SDS011;14572;43.120;1.178;2022-11-12T09:44:51;5.70;;;1.35;;
26391;SDS011;14572;43.120;1.178;2022-11-12T09:47:23;7.70;;;1.92;;
26391;SDS011;14572;43.120;1.178;2022-11-12T09:49:56;8.18;;;1.95;;
26391;SDS011;14572;43.120;1.178;2022-11-12T09:52:27;6.53;;;1.33;;
26391;SDS011;14572;43.120;1.178;2022-11-12T09:54:57;4.85;;;1.20;;
26391;SDS011;14572;43.120;1.178;2022-11-12T09:57:31;3.67;;;1.13;;
26391;SDS011;14572;43.120;1.178;2022-11-12T09:59:58;7.22;;;1.88;;
26391;SDS011;14572;43.120;1.178;2022-11-12T10:02:29;3.90;;;1.30;;
26391;SDS011;14572;43.120;1.178;2022-11-12T10:05:05;2.28;;;1.10;;
26391;SDS011;14572;43.120;1.178;2022-11-12T10:07:45;5.82;;;1.40;;
26391;SDS011;14572;43.120;1.178;2022-11-12T10:10:23;7.82;;;1.40;;
26391;SDS011;14572;43.120;1.178;2022-11-12T10:13:03;4.18;;;1.27;;
26391;SDS011;14572;43.120;1.178;2022-11-12T10:15:36;5.07;;;1.55;;
26391;SDS011;14572;43.120;1.178;2022-11-12T10:18:30;4.60;;;1.40;;
26391;SDS011;14572;43.120;1.178;2022-11-12T10:21:06;4.10;;;1.20;;
26391;SDS011;14572;43.120;1.178;2022-11-12T10:23:40;4.53;;;1.00;;
26391;SDS011;14572;43.120;1.178;2022-11-12T10:26:10;3.70;;;1.30;;
26391;SDS011;14572;43.120;1.178;2022-11-12T10:28:39;5.85;;;1.30;;
26391;SDS011;14572;43.120;1.178;2022-11-12T10:31:10;4.70;;;0.95;;
26391;SDS011;14572;43.120;1.178;2022-11-12T10:33:38;4.22;;;1.27;;
26391;SDS011;14572;43.120;1.178;2022-11-12T10:38:56;5.20;;;1.52;;
26391;SDS011;14572;43.120;1.178;2022-11-12T10:41:24;5.10;;;1.58;;
26391;SDS011;14572;43.120;1.178;2022-11-12T10:43:54;5.60;;;1.20;;
26391;SDS011;14572;43.120;1.178;2022-11-12T10:46:22;6.05;;;1.40;;
26391;SDS011;14572;43.120;1.178;2022-11-12T10:48:55;4.00;;;1.10;;
26391;SDS011;14572;43.120;1.178;2022-11-12T10:51:25;5.50;;;1.95;;
26391;SDS011;14572;43.120;1.178;2022-11-12T10:53:54;3.47;;;1.85;;
26391;SDS011;14572;43.120;1.178;2022-11-12T10:56:27;5.57;;;1.20;;
26391;SDS011;14572;43.120;1.178;2022-11-12T10:59:08;6.10;;;1.80;;
26391;SDS011;14572;43.120;1.178;2022-11-12T11:01:36;7.07;;;1.15;;
26391;SDS011;14572;43.120;1.178;2022-11-12T11:04:04;5.57;;;1.23;;
26391;SDS011;14572;43.120;1.178;2022-11-12T11:06:41;4.05;;;1.20;;
26391;SDS011;14572;43.120;1.178;2022-11-12T11:09:14;5.05;;;1.30;;
26391;SDS011;14572;43.120;1.178;2022-11-12T11:11:47;6.82;;;1.10;;
26391;SDS011;14572;43.120;1.178;2022-11-12T11:14:25;8.07;;;1.60;;
26391;SDS011;14572;43.120;1.178;2022-11-12T11:16:58;2.97;;;1.55;;
26391;SDS011;14572;43.120;1.178;2022-11-12T11:19:27;4.97;;;1.08;;
26391;SDS011;14572;43.120;1.178;2022-11-12T11:24:50;6.75;;;1.15;;
26391;SDS011;14572;43.120;1.178;2022-11-12T11:27:28;6.70;;;1.75;;
26391;SDS011;14572;43.120;1.178;2022-11-12T11:30:03;4.47;;;1.10;;
26391;SDS011;14572;43.120;1.178;2022-11-12T11:32:45;10.25;;;1.75;;
26391;SDS011;14572;43.120;1.178;2022-11-12T11:35:20;4.03;;;1.35;;
26391;SDS011;14572;43.120;1.178;2022-11-12T11:37:56;3.70;;;1.33;;
26391;SDS011;14572;43.120;1.178;2022-11-12T11:40:42;6.75;;;1.50;;
26391;SDS011;14572;43.120;1.178;2022-11-12T11:43:17;8.25;;;1.70;;
26391;SDS011;14572;43.120;1.178;2022-11-12T11:46:02;3.58;;;1.17;;
26391;SDS011;14572;43.120;1.178;2022-11-12T11:48:37;4.35;;;1.30;;
26391;SDS011;14572;43.120;1.178;2022-11-12T11:51:15;8.77;;;1.42;;
26391;SDS011;14572;43.120;1.178;2022-11-12T11:53:53;6.63;;;1.58;;
26391;SDS011;14572;43.120;1.178;2022-11-12T11:56:27;5.53;;;1.50;;
26391;SDS011;14572;43.120;1.178;2022-11-12T11:59:00;3.03;;;1.35;;
26391;SDS011;14572;43.120;1.178;2022-11-12T12:01:37;8.15;;;1.65;;
26391;SDS011;14572;43.120;1.178;2022-11-12T12:04:22;4.40;;;1.50;;
26391;SDS011;14572;43.120;1.178;2022-11-12T12:07:02;5.07;;;1.38;;
26391;SDS011;14572;43.120;1.178;2022-11-12T12:09:35;3.67;;;1.42;;
26391;SDS011;14572;43.120;1.178;2022-11-12T12:12:09;7.97;;;1.75;;
26391;SDS011;14572;43.120;1.178;2022-11-12T12:14:46;5.50;;;1.20;;
26391;SDS011;14572;43.120;1.178;2022-11-12T12:17:22;5.88;;;1.30;;
26391;SDS011;14572;43.120;1.178;2022-11-12T12:19:59;5.32;;;1.50;;
26391;SDS011;14572;43.120;1.178;2022-11-12T12:22:32;5.30;;;1.50;;
26391;SDS011;14572;43.120;1.178;2022-11-12T12:25:03;6.53;;;1.50;;
26391;SDS011;14572;43.120;1.178;2022-11-12T12:27:37;7.20;;;1.70;;
26391;SDS011;14572;43.120;1.178;2022-11-12T12:30:13;3.55;;;1.45;;
26391;SDS011;14572;43.120;1.178;2022-11-12T12:32:46;4.25;;;1.10;;
26391;SDS011;14572;43.120;1.178;2022-11-12T12:35:20;4.13;;;1.50;;
26391;SDS011;14572;43.120;1.178;2022-11-12T12:37:51;3.38;;;1.33;;
26391;SDS011;14572;43.120;1.178;2022-11-12T12:40:25;2.50;;;1.20;;
26391;SDS011;14572;43.120;1.178;2022-11-12T12:42:59;5.95;;;1.50;;
26391;SDS011;14572;43.120;1.178;2022-11-12T12:45:33;6.88;;;1.60;;
26391;SDS011;14572;43.120;1.178;2022-11-12T12:48:04;5.68;;;1.52;;
26391;SDS011;14572;43.120;1.178;2022-11-12T12:50:35;5.53;;;1.52;;
26391;SDS011;14572;43.120;1.178;2022-11-12T12:53:04;3.63;;;1.52;;
26391;SDS011;14572;43.120;1.178;2022-11-12T12:55:32;5.00;;;1.40;;
26391;SDS011;14572;43.120;1.178;2022-11-12T12:58:03;6.75;;;1.65;;
26391;SDS011;14572;43.120;1.178;2022-11-12T13:00:31;6.30;;;1.40;;
26391;SDS011;14572;43.120;1.178;2022-11-12T13:03:00;3.53;;;1.60;;
26391;SDS011;14572;43.120;1.178;2022-11-12T13:05:29;5.95;;;1.73;;
26391;SDS011;14572;43.120;1.178;2022-11-12T13:07:58;8.57;;;1.70;;
26391;SDS011;14572;43.120;1.178;2022-11-12T13:13:31;5.70;;;1.52;;
26391;SDS011;14572;43.120;1.178;2022-11-12T13:16:00;3.65;;;1.38;;
26391;SDS011;14572;43.120;1.178;2022-11-12T13:21:26;3.03;;;1.63;;
26391;SDS011;14572;43.120;1.178;2022-11-12T13:23:54;2.28;;;1.25;;
26391;SDS011;14572;43.120;1.178;2022-11-12T13:29:37;4.65;;;1.73;;
26391;SDS011;14572;43.120;1.178;2022-11-12T13:37:59;6.20;;;1.92;;
26391;SDS011;14572;43.120;1.178;2022-11-12T13:40:38;4.00;;;1.52;;
26391;SDS011;14572;43.120;1.178;2022-11-12T13:43:15;6.13;;;1.60;;
26391;SDS011;14572;43.120;1.178;2022-11-12T13:45:46;6.88;;;1.90;;
26391;SDS011;14572;43.120;1.178;2022-11-12T13:48:16;3.60;;;1.38;;
26391;SDS011;14572;43.120;1.178;2022-11-12T13:53:42;4.35;;;1.58;;
26391;SDS011;14572;43.120;1.178;2022-11-12T13:56:10;5.38;;;1.80;;
26391;SDS011;14572;43.120;1.178;2022-11-12T13:58:37;3.78;;;1.50;;
26391;SDS011;14572;43.120;1.178;2022-11-12T14:01:06;3.60;;;1.52;;
26391;SDS011;14572;43.120;1.178;2022-11-12T14:03:35;6.75;;;1.88;;
26391;SDS011;14572;43.120;1.178;2022-11-12T14:06:14;3.55;;;1.70;;
26391;SDS011;14572;43.120;1.178;2022-11-12T14:08:50;5.82;;;1.92;;
26391;SDS011;14572;43.120;1.178;2022-11-12T14:11:25;8.38;;;1.65;;
26391;SDS011;14572;43.120;1.178;2022-11-12T14:14:04;4.10;;;2.00;;
26391;SDS011;14572;43.120;1.178;2022-11-12T14:16:42;10.10;;;2.00;;
26391;SDS011;14572;43.120;1.178;2022-11-12T14:19:20;3.63;;;1.63;;
26391;SDS011;14572;43.120;1.178;2022-11-12T14:22:10;6.82;;;1.95;;
26391;SDS011;14572;43.120;1.178;2022-11-12T14:24:39;5.93;;;2.00;;
26391;SDS011;14572;43.120;1.178;2022-11-12T14:27:20;8.13;;;2.50;;
26391;SDS011;14572;43.120;1.178;2022-11-12T14:29:48;5.70;;;1.73;;
26391;SDS011;14572;43.120;1.178;2022-11-12T14:32:18;6.22;;;2.50;;
26391;SDS011;14572;43.120;1.178;2022-11-12T14:34:45;6.20;;;1.90;;
26391;SDS011;14572;43.120;1.178;2022-11-12T14:37:15;6.32;;;2.30;;
26391;SDS011;14572;43.120;1.178;2022-11-12T14:39:55;9.50;;;1.83;;
26391;SDS011;14572;43.120;1.178;2022-11-12T14:42:22;4.18;;;2.05;;
26391;SDS011;14572;43.120;1.178;2022-11-12T14:44:50;5.57;;;1.75;;
26391;SDS011;14572;43.120;1.178;2022-11-12T14:47:18;3.50;;;1.77;;
26391;SDS011;14572;43.120;1.178;2022-11-12T14:49:47;5.25;;;1.85;;
26391;SDS011;14572;43.120;1.178;2022-11-12T14:52:16;3.53;;;1.80;;
26391;SDS011;14572;43.120;1.178;2022-11-12T14:54:46;5.95;;;1.92;;
26391;SDS011;14572;43.120;1.178;2022-11-12T14:57:16;3.03;;;1.80;;
26391;SDS011;14572;43.120;1.178;2022-11-12T14:59:45;4.60;;;1.98;;
26391;SDS011;14572;43.120;1.178;2022-11-12T15:02:13;11.13;;;2.33;;
26391;SDS011;14572;43.120;1.178;2022-11-12T15:04:49;9.05;;;2.22;;
26391;SDS011;14572;43.120;1.178;2022-11-12T15:07:22;6.00;;;2.40;;
26391;SDS011;14572;43.120;1.178;2022-11-12T15:09:51;5.65;;;2.33;;
26391;SDS011;14572;43.120;1.178;2022-11-12T15:12:19;5.00;;;2.20;;
26391;SDS011;14572;43.120;1.178;2022-11-12T15:14:47;7.40;;;2.30;;
26391;SDS011;14572;43.120;1.178;2022-11-12T15:17:28;4.25;;;2.00;;
26391;SDS011;14572;43.120;1.178;2022-11-12T15:20:02;8.23;;;2.40;;
26391;SDS011;14572;43.120;1.178;2022-11-12T15:22:30;5.53;;;2.58;;
26391;SDS011;14572;43.120;1.178;2022-11-12T15:25:08;4.43;;;2.20;;
26391;SDS011;14572;43.120;1.178;2022-11-12T15:27:37;4.25;;;1.92;;
26391;SDS011;14572;43.120;1.178;2022-11-12T15:30:16;6.07;;;2.33;;
26391;SDS011;14572;43.120;1.178;2022-11-12T15:32:47;4.88;;;2.33;;
26391;SDS011;14572;43.120;1.178;2022-11-12T15:35:35;9.13;;;2.10;;
26391;SDS011;14572;43.120;1.178;2022-11-12T15:38:04;4.43;;;2.13;;
26391;SDS011;14572;43.120;1.178;2022-11-12T15:40:39;5.78;;;2.80;;
26391;SDS011;14572;43.120;1.178;2022-11-12T15:43:13;6.63;;;2.67;;
26391;SDS011;14572;43.120;1.178;2022-11-12T15:45:42;6.03;;;2.30;;
26391;SDS011;14572;43.120;1.178;2022-11-12T15:48:09;4.60;;;2.33;;
26391;SDS011;14572;43.120;1.178;2022-11-12T15:50:38;4.68;;;2.58;;
26391;SDS011;14572;43.120;1.178;2022-11-12T15:53:05;8.95;;;2.53;;
26391;SDS011;14572;43.120;1.178;2022-11-12T15:55:32;3.78;;;2.17;;
26391;SDS011;14572;43.120;1.178;2022-11-12T15:58:00;6.63;;;2.20;;
26391;SDS011;14572;43.120;1.178;2022-11-12T16:00:29;6.88;;;2.33;;
26391;SDS011;14572;43.120;1.178;2022-11-12T16:02:58;4.20;;;2.47;;
26391;SDS011;14572;43.120;1.178;2022-11-12T16:05:31;8.20;;;2.22;;
26391;SDS011;14572;43.120;1.178;2022-11-12T16:08:00;5.82;;;2.47;;
26391;SDS011;14572;43.120;1.178;2022-11-12T16:10:27;4.03;;;2.40;;
26391;SDS011;14572;43.120;1.178;2022-11-12T16:12:55;7.18;;;2.30;;
26391;SDS011;14572;43.120;1.178;2022-11-12T16:15:24;7.82;;;2.25;;
26391;SDS011;14572;43.120;1.178;2022-11-12T16:17:52;4.40;;;2.40;;
26391;SDS011;14572;43.120;1.178;2022-11-12T16:20:20;10.13;;;2.45;;
26391;SDS011;14572;43.120;1.178;2022-11-12T16:22:48;5.38;;;2.20;;
26391;SDS011;14572;43.120;1.178;2022-11-12T16:25:18;9.38;;;2.63;;
26391;SDS011;14572;43.120;1.178;2022-11-12T16:27:46;6.10;;;2.30;;
26391;SDS011;14572;43.120;1.178;2022-11-12T16:30:13;5.82;;;2.30;;
26391;SDS011;14572;43.120;1.178;2022-11-12T16:32:42;7.03;;;2.97;;
26391;SDS011;14572;43.120;1.178;2022-11-12T16:35:09;4.13;;;1.98;;
26391;SDS011;14572;43.120;1.178;2022-11-12T16:37:36;5.93;;;2.42;;
26391;SDS011;14572;43.120;1.178;2022-11-12T16:40:05;7.40;;;2.78;;
26391;SDS011;14572;43.120;1.178;2022-11-12T16:42:34;7.15;;;2.42;;
26391;SDS011;14572;43.120;1.178;2022-11-12T16:45:01;4.78;;;2.53;;
26391;SDS011;14572;43.120;1.178;2022-11-12T16:47:29;5.75;;;3.08;;
26391;SDS011;14572;43.120;1.178;2022-11-12T16:49:57;5.88;;;2.40;;
26391;SDS011;14572;43.120;1.178;2022-11-12T16:52:24;7.70;;;2.55;;
26391;SDS011;14572;43.120;1.178;2022-11-12T16:54:51;5.18;;;2.38;;
26391;SDS011;14572;43.120;1.178;2022-11-12T16:57:18;5.60;;;2.38;;
26391;SDS011;14572;43.120;1.178;2022-11-12T16:59:47;5.25;;;2.60;;
26391;SDS011;14572;43.120;1.178;2022-11-12T17:02:14;5.55;;;2.00;;
26391;SDS011;14572;43.120;1.178;2022-11-12T17:04:41;6.95;;;2.40;;
26391;SDS011;14572;43.120;1.178;2022-11-12T17:07:08;7.75;;;2.55;;
26391;SDS011;14572;43.120;1.178;2022-11-12T17:09:36;6.07;;;2.60;;
26391;SDS011;14572;43.120;1.178;2022-11-12T17:12:03;4.95;;;2.17;;
26391;SDS011;14572;43.120;1.178;2022-11-12T17:14:30;5.40;;;3.03;;
26391;SDS011;14572;43.120;1.178;2022-11-12T17:16:59;8.18;;;2.80;;
26391;SDS011;14572;43.120;1.178;2022-11-12T17:19:26;5.28;;;2.58;;
26391;SDS011;14572;43.120;1.178;2022-11-12T17:21:53;6.85;;;2.30;;
26391;SDS011;14572;43.120;1.178;2022-11-12T17:24:20;7.50;;;2.33;;
26391;SDS011;14572;43.120;1.178;2022-11-12T17:26:47;4.88;;;3.17;;
26391;SDS011;14572;43.120;1.178;2022-11-12T17:29:14;6.68;;;2.42;;
26391;SDS011;14572;43.120;1.178;2022-11-12T17:31:41;5.00;;;2.55;;
26391;SDS011;14572;43.120;1.178;2022-11-12T17:34:09;5.97;;;2.55;;
26391;SDS011;14572;43.120;1.178;2022-11-12T17:36:36;10.75;;;2.70;;
26391;SDS011;14572;43.120;1.178;2022-11-12T17:39:03;5.45;;;2.75;;
26391;SDS011;14572;43.120;1.178;2022-11-12T17:41:30;5.18;;;2.53;;
26391;SDS011;14572;43.120;1.178;2022-11-12T17:43:58;10.07;;;2.67;;
26391;SDS011;14572;43.120;1.178;2022-11-12T17:46:26;7.93;;;3.03;;
26391;SDS011;14572;43.120;1.178;2022-11-12T17:48:54;10.75;;;4.15;;
26391;SDS011;14572;43.120;1.178;2022-11-12T17:51:24;9.48;;;3.50;;
26391;SDS011;14572;43.120;1.178;2022-11-12T17:53:51;23.75;;;11.80;;
26391;SDS011;14572;43.120;1.178;2022-11-12T17:56:20;21.80;;;9.30;;
26391;SDS011;14572;43.120;1.178;2022-11-12T17:58:48;19.38;;;10.20;;
26391;SDS011;14572;43.120;1.178;2022-11-12T18:01:16;11.32;;;6.72;;
26391;SDS011;14572;43.120;1.178;2022-11-12T18:03:44;10.82;;;5.38;;
26391;SDS011;14572;43.120;1.178;2022-11-12T18:06:14;8.55;;;4.40;;
26391;SDS011;14572;43.120;1.178;2022-11-12T18:08:44;9.05;;;3.90;;
26391;SDS011;14572;43.120;1.178;2022-11-12T18:11:12;13.25;;;3.65;;
26391;SDS011;14572;43.120;1.178;2022-11-12T18:13:39;8.68;;;3.88;;
26391;SDS011;14572;43.120;1.178;2022-11-12T18:16:13;7.63;;;3.83;;
26391;SDS011;14572;43.120;1.178;2022-11-12T18:18:40;8.50;;;3.35;;
26391;SDS011;14572;43.120;1.178;2022-11-12T18:21:07;6.57;;;3.00;;
26391;SDS011;14572;43.120;1.178;2022-11-12T18:23:35;6.18;;;3.10;;
26391;SDS011;14572;43.120;1.178;2022-11-12T18:26:04;10.73;;;3.60;;
26391;SDS011;14572;43.120;1.178;2022-11-12T18:28:32;7.82;;;3.17;;
26391;SDS011;14572;43.120;1.178;2022-11-12T18:30:59;4.75;;;2.97;;
26391;SDS011;14572;43.120;1.178;2022-11-12T18:33:27;13.13;;;3.40;;
26391;SDS011;14572;43.120;1.178;2022-11-12T18:36:00;7.80;;;3.15;;
26391;SDS011;14572;43.120;1.178;2022-11-12T18:38:30;9.00;;;3.60;;
26391;SDS011;14572;43.120;1.178;2022-11-12T18:40:59;9.80;;;3.70;;
26391;SDS011;14572;43.120;1.178;2022-11-12T18:43:28;8.95;;;3.00;;
26391;SDS011;14572;43.120;1.178;2022-11-12T18:45:56;12.63;;;3.50;;
26391;SDS011;14572;43.120;1.178;2022-11-12T18:48:24;8.00;;;3.58;;
26391;SDS011;14572;43.120;1.178;2022-11-12T18:50:51;7.88;;;2.72;;
26391;SDS011;14572;43.120;1.178;2022-11-12T18:53:18;7.78;;;3.47;;
26391;SDS011;14572;43.120;1.178;2022-11-12T18:55:45;8.25;;;3.38;;
